createdAt,value
2017-11-30T00:00:02.131Z,49.67
2017-11-30T00:02:30.397Z,40.97
2017-11-30T00:04:59.439Z,64.43
2017-11-30T00:07:27.845Z,60.43
2017-11-30T00:09:56.885Z,39.87
2017-11-30T00:12:25.991Z,62.10
2017-11-30T00:14:54.276Z,42.23
2017-11-30T00:17:22.616Z,44.30
2017-11-30T00:19:51.024Z,41.63
2017-11-30T00:22:20.055Z,56.90
2017-11-30T00:24:48.312Z,38.90
2017-11-30T00:27:17.384Z,51.47
2017-11-30T00:29:45.640Z,40.10
2017-11-30T00:32:13.881Z,41.50
2017-11-30T00:34:42.194Z,40.63
2017-11-30T00:37:10.445Z,39.57
2017-11-30T00:39:38.751Z,39.67
2017-11-30T00:42:07.130Z,38.43
2017-11-30T00:44:35.371Z,48.33
2017-11-30T00:47:03.616Z,36.97
2017-11-30T00:49:32.863Z,41.30
2017-11-30T00:52:01.095Z,39.60
2017-11-30T00:54:29.396Z,49.33
2017-11-30T00:56:57.704Z,40.40
2017-11-30T00:59:25.951Z,42.97
2017-11-30T01:01:54.202Z,48.70
2017-11-30T01:04:22.463Z,51.27
2017-11-30T01:06:51.518Z,47.30
2017-11-30T01:09:19.760Z,42.30
2017-11-30T01:11:48.005Z,47.93
2017-11-30T01:14:17.057Z,35.63
2017-11-30T01:16:45.450Z,36.63
2017-11-30T01:19:15.185Z,36.70
2017-11-30T01:21:43.505Z,36.03
2017-11-30T01:24:11.772Z,37.70
2017-11-30T01:26:40.043Z,54.60
2017-11-30T01:29:08.333Z,41.77
2017-11-30T01:31:36.606Z,48.23
2017-11-30T01:34:05.005Z,51.87
2017-11-30T01:36:33.478Z,49.53
2017-11-30T01:39:01.761Z,48.27
2017-11-30T01:41:30.019Z,35.57
2017-11-30T01:43:58.332Z,35.63
2017-11-30T01:46:26.589Z,40.80
2017-11-30T01:48:54.905Z,39.00
2017-11-30T01:51:23.890Z,37.77
2017-11-30T01:53:52.934Z,35.00
2017-11-30T01:56:21.337Z,33.90
2017-11-30T01:58:49.599Z,38.97
2017-11-30T02:01:17.865Z,51.03
2017-11-30T02:03:46.302Z,41.00
2017-11-30T02:06:14.524Z,54.80
2017-11-30T02:08:42.785Z,52.80
2017-11-30T02:11:11.106Z,37.90
2017-11-30T02:13:40.120Z,57.57
2017-11-30T02:16:09.119Z,34.13
2017-11-30T02:18:37.462Z,54.80
2017-11-30T02:21:05.722Z,40.77
2017-11-30T02:23:33.967Z,35.77
2017-11-30T02:26:02.257Z,35.43
2017-11-30T02:28:30.574Z,35.03
2017-11-30T02:30:58.948Z,46.30
2017-11-30T02:33:27.194Z,34.47
2017-11-30T02:35:55.443Z,31.93
2017-11-30T02:38:23.765Z,31.73
2017-11-30T02:40:52.029Z,32.77
2017-11-30T02:43:20.286Z,42.97
2017-11-30T02:45:48.650Z,33.90
2017-11-30T02:48:16.901Z,32.50
2017-11-30T02:50:45.940Z,33.83
2017-11-30T02:53:14.284Z,32.27
2017-11-30T02:55:42.541Z,36.27
2017-11-30T02:58:11.560Z,34.60
2017-11-30T03:00:39.846Z,34.80
2017-11-30T03:03:08.126Z,36.20
2017-11-30T03:05:38.057Z,32.93
2017-11-30T03:08:06.314Z,31.83
2017-11-30T03:10:34.590Z,48.53
2017-11-30T03:13:03.013Z,45.50
2017-11-30T03:15:31.286Z,36.07
2017-11-30T03:17:59.711Z,43.77
2017-11-30T03:20:28.735Z,33.00
2017-11-30T03:22:56.996Z,49.60
2017-11-30T03:25:25.384Z,48.83
2017-11-30T03:27:54.052Z,32.40
2017-11-30T03:30:22.333Z,35.17
2017-11-30T03:32:50.602Z,34.10
2017-11-30T03:35:18.953Z,34.10
2017-11-30T03:37:47.976Z,35.07
2017-11-30T03:40:16.281Z,46.50
2017-11-30T03:42:44.596Z,38.67
2017-11-30T03:45:13.864Z,32.63
2017-11-30T03:47:42.125Z,33.70
2017-11-30T03:50:10.438Z,33.60
2017-11-30T03:52:38.696Z,39.33
2017-11-30T03:55:06.960Z,39.40
2017-11-30T03:57:35.435Z,33.40
2017-11-30T04:00:03.667Z,31.67
2017-11-30T04:02:31.923Z,33.47
2017-11-30T04:05:01.030Z,33.90
2017-11-30T04:07:30.090Z,29.50
2017-11-30T04:09:58.334Z,34.60
2017-11-30T04:12:27.224Z,31.90
2017-11-30T04:14:55.523Z,30.30
2017-11-30T04:17:23.793Z,33.83
2017-11-30T04:19:52.249Z,30.50
2017-11-30T04:22:20.546Z,31.07
2017-11-30T04:24:48.791Z,31.80
2017-11-30T04:27:17.075Z,36.67
2017-11-30T04:29:45.449Z,31.57
2017-11-30T04:32:14.481Z,30.50
2017-11-30T04:34:42.720Z,33.50
2017-11-30T04:37:11.091Z,31.73
2017-11-30T04:39:39.338Z,31.63
2017-11-30T04:42:08.331Z,32.77
2017-11-30T04:44:36.638Z,29.03
2017-11-30T04:47:04.894Z,29.80
2017-11-30T04:49:33.161Z,35.30
2017-11-30T04:52:02.427Z,29.67
2017-11-30T04:54:30.695Z,30.20
2017-11-30T04:56:58.961Z,34.53
2017-11-30T04:59:27.371Z,27.90
2017-11-30T05:01:56.472Z,29.13
2017-11-30T05:04:25.535Z,31.03
2017-11-30T05:06:53.853Z,31.90
2017-11-30T05:09:22.884Z,31.17
2017-11-30T05:11:51.154Z,35.83
2017-11-30T05:14:20.268Z,51.03
2017-11-30T05:16:48.506Z,35.37
2017-11-30T05:19:17.575Z,37.77
2017-11-30T05:21:45.853Z,38.30
2017-11-30T05:24:14.098Z,30.30
2017-11-30T05:26:42.461Z,32.03
2017-11-30T05:29:10.733Z,46.47
2017-11-30T05:31:39.051Z,37.70
2017-11-30T05:34:08.152Z,48.60
2017-11-30T05:36:37.165Z,49.77
2017-11-30T05:39:05.520Z,58.17
2017-11-30T05:41:33.964Z,28.93
2017-11-30T05:44:03.516Z,31.33
2017-11-30T05:46:32.676Z,35.67
2017-11-30T05:49:01.448Z,31.50
2017-11-30T05:51:29.783Z,29.63
2017-11-30T05:53:58.871Z,37.83
2017-11-30T05:56:27.933Z,33.10
2017-11-30T05:58:56.206Z,28.00
2017-11-30T06:01:24.524Z,42.67
2017-11-30T06:03:53.684Z,32.13
2017-11-30T06:06:21.989Z,43.70
2017-11-30T06:08:51.018Z,41.00
2017-11-30T06:11:19.342Z,37.30
2017-11-30T06:13:47.596Z,35.40
2017-11-30T06:16:15.938Z,36.87
2017-11-30T06:18:44.248Z,39.00
2017-11-30T06:21:12.523Z,33.83
2017-11-30T06:23:40.944Z,48.80
2017-11-30T06:26:09.187Z,46.70
2017-11-30T06:28:37.450Z,31.90
2017-11-30T06:31:05.766Z,34.77
2017-11-30T06:33:34.124Z,30.87
2017-11-30T06:36:02.416Z,32.53
2017-11-30T06:38:30.705Z,44.70
2017-11-30T06:41:00.183Z,32.60
2017-11-30T06:43:28.452Z,28.40
2017-11-30T06:45:56.727Z,36.07
2017-11-30T06:48:25.027Z,33.03
2017-11-30T06:50:54.115Z,28.57
2017-11-30T06:53:23.235Z,30.20
2017-11-30T06:55:51.570Z,28.37
2017-11-30T06:58:19.867Z,28.63
2017-11-30T07:00:48.154Z,30.33
2017-11-30T07:03:17.274Z,41.00
2017-11-30T07:05:45.549Z,28.80
2017-11-30T07:08:13.817Z,25.13
2017-11-30T07:10:42.100Z,27.90
2017-11-30T07:13:10.375Z,25.93
2017-11-30T07:15:38.712Z,28.07
2017-11-30T07:18:07.030Z,28.80
2017-11-30T07:20:35.305Z,29.37
2017-11-30T07:23:03.640Z,34.00
2017-11-30T07:25:31.901Z,31.60
2017-11-30T07:28:00.261Z,29.57
2017-11-30T07:30:30.246Z,31.27
2017-11-30T07:32:59.293Z,39.90
2017-11-30T07:35:27.576Z,38.60
2017-11-30T07:37:55.878Z,36.73
2017-11-30T07:40:24.956Z,49.70
2017-11-30T07:42:53.231Z,38.13
2017-11-30T07:45:21.507Z,40.37
2017-11-30T07:47:49.841Z,32.33
2017-11-30T07:50:18.176Z,31.20
2017-11-30T07:52:47.353Z,33.00
2017-11-30T07:55:15.797Z,29.00
2017-11-30T07:57:44.817Z,28.57
2017-11-30T08:00:13.118Z,31.63
2017-11-30T08:02:41.446Z,34.50
2017-11-30T08:05:09.717Z,31.03
2017-11-30T08:07:38.058Z,27.17
2017-11-30T08:10:07.075Z,30.17
2017-11-30T08:12:35.620Z,29.60
2017-11-30T08:15:04.793Z,28.97
2017-11-30T08:17:33.082Z,30.57
2017-11-30T08:20:01.361Z,33.63
2017-11-30T08:22:29.763Z,35.50
2017-11-30T08:24:59.443Z,33.10
2017-11-30T08:27:28.682Z,37.00
2017-11-30T08:29:56.980Z,45.70
2017-11-30T08:32:25.260Z,44.67
2017-11-30T08:34:53.604Z,38.70
2017-11-30T08:37:21.935Z,61.07
2017-11-30T08:39:50.299Z,48.53
2017-11-30T08:42:18.616Z,52.30
2017-11-30T08:44:47.664Z,43.83
2017-11-30T08:47:16.653Z,42.80
2017-11-30T08:49:44.956Z,48.30
2017-11-30T08:52:13.253Z,50.67
2017-11-30T08:54:42.278Z,50.10
2017-11-30T08:57:10.763Z,35.07
2017-11-30T08:59:39.039Z,42.60
2017-11-30T09:02:07.326Z,47.80
2017-11-30T09:04:35.686Z,38.17
2017-11-30T09:07:03.954Z,49.80
2017-11-30T09:09:32.560Z,33.80
2017-11-30T09:12:00.913Z,32.60
2017-11-30T09:14:29.150Z,40.10
2017-11-30T09:16:57.403Z,39.10
2017-11-30T09:19:25.738Z,49.63
2017-11-30T09:21:54.860Z,34.97
2017-11-30T09:24:23.153Z,33.80
2017-11-30T09:26:51.542Z,55.03
2017-11-30T09:29:20.037Z,180.20
2017-11-30T09:31:48.434Z,93.30
2017-11-30T09:34:17.634Z,66.80
2017-11-30T09:36:46.680Z,57.07
2017-11-30T09:39:15.002Z,57.17
2017-11-30T09:41:43.384Z,169.13
2017-11-30T09:44:12.446Z,71.73
2017-11-30T09:46:40.697Z,59.00
2017-11-30T09:49:09.309Z,46.50
2017-11-30T09:51:37.562Z,53.07
2017-11-30T09:54:05.800Z,58.50
2017-11-30T09:56:35.482Z,37.80
2017-11-30T09:59:03.781Z,42.33
2017-11-30T10:01:32.835Z,44.87
2017-11-30T10:04:01.181Z,35.93
2017-11-30T10:06:29.487Z,36.33
2017-11-30T10:08:58.149Z,42.27
2017-11-30T10:11:26.829Z,43.37
2017-11-30T10:13:55.157Z,48.03
2017-11-30T10:16:23.646Z,45.80
2017-11-30T10:18:52.699Z,47.53
2017-11-30T10:21:20.993Z,43.60
2017-11-30T10:23:49.330Z,36.77
2017-11-30T10:26:17.577Z,42.73
2017-11-30T10:28:46.634Z,52.50
2017-11-30T10:31:14.981Z,45.43
2017-11-30T10:33:43.269Z,52.80
2017-11-30T10:36:11.564Z,44.23
2017-11-30T10:38:39.892Z,33.37
2017-11-30T10:41:08.173Z,34.60
2017-11-30T10:43:36.437Z,41.77
2017-11-30T10:46:06.427Z,38.80
2017-11-30T10:48:34.690Z,34.27
2017-11-30T10:51:02.986Z,39.87
2017-11-30T10:53:32.056Z,34.60
2017-11-30T10:56:00.300Z,33.10
2017-11-30T10:58:28.755Z,31.63
2017-11-30T11:00:57.868Z,39.50
2017-11-30T11:03:26.175Z,44.73
2017-11-30T11:05:54.475Z,38.93
2017-11-30T11:08:22.817Z,31.83
2017-11-30T11:10:51.154Z,31.17
2017-11-30T11:13:19.428Z,31.50
2017-11-30T11:15:47.736Z,38.17
2017-11-30T11:18:15.974Z,31.87
2017-11-30T11:20:44.285Z,34.43
2017-11-30T11:23:12.584Z,32.30
2017-11-30T11:25:40.894Z,34.73
2017-11-30T11:28:10.036Z,32.70
2017-11-30T11:30:38.377Z,41.77
2017-11-30T11:33:07.434Z,43.23
2017-11-30T11:35:35.713Z,34.97
2017-11-30T11:38:04.068Z,40.00
2017-11-30T11:40:32.390Z,37.17
2017-11-30T11:43:00.674Z,44.30
2017-11-30T11:45:29.760Z,38.60
2017-11-30T11:47:58.081Z,29.60
2017-11-30T11:50:26.365Z,36.00
2017-11-30T11:52:54.701Z,42.60
2017-11-30T11:55:23.718Z,31.50
2017-11-30T11:57:52.038Z,30.07
2017-11-30T12:00:20.330Z,48.47
2017-11-30T12:02:48.598Z,36.97
2017-11-30T12:05:16.935Z,32.67
2017-11-30T12:07:45.247Z,41.63
2017-11-30T12:10:13.577Z,44.27
2017-11-30T12:12:41.850Z,35.23
2017-11-30T12:15:10.172Z,32.30
2017-11-30T12:17:38.404Z,49.30
2017-11-30T12:20:06.710Z,41.57
2017-11-30T12:22:35.131Z,43.80
2017-11-30T12:25:04.170Z,41.60
2017-11-30T12:27:32.431Z,39.30
2017-11-30T12:30:00.768Z,37.27
2017-11-30T12:32:29.810Z,43.20
2017-11-30T12:34:58.075Z,38.97
2017-11-30T12:37:26.397Z,43.23
2017-11-30T12:39:54.692Z,33.43
2017-11-30T12:42:23.718Z,46.67
2017-11-30T12:44:52.029Z,50.03
2017-11-30T12:47:20.361Z,32.47
2017-11-30T12:49:49.410Z,31.57
2017-11-30T12:52:17.719Z,38.30
2017-11-30T12:54:46.787Z,44.80
2017-11-30T12:57:15.844Z,33.13
2017-11-30T12:59:44.131Z,47.97
2017-11-30T13:02:13.655Z,42.80
2017-11-30T13:04:42.829Z,37.50
2017-11-30T13:07:11.127Z,42.90
2017-11-30T13:09:39.372Z,47.40
2017-11-30T13:12:08.466Z,45.97
2017-11-30T13:14:36.758Z,50.60
2017-11-30T13:17:05.020Z,36.20
2017-11-30T13:19:33.272Z,45.40
2017-11-30T13:22:02.945Z,42.23
2017-11-30T13:24:31.197Z,38.33
2017-11-30T13:26:59.510Z,48.80
2017-11-30T13:29:28.576Z,50.73
2017-11-30T13:31:56.911Z,48.10
2017-11-30T13:34:25.159Z,47.90
2017-11-30T13:36:53.441Z,49.10
2017-11-30T13:39:21.739Z,49.40
2017-11-30T13:41:49.992Z,49.37
2017-11-30T13:44:19.075Z,52.40
2017-11-30T13:46:47.350Z,56.30
2017-11-30T13:49:15.602Z,52.73
2017-11-30T13:51:43.893Z,54.77
2017-11-30T13:54:12.122Z,53.50
2017-11-30T13:56:40.490Z,62.00
2017-11-30T13:59:08.826Z,56.90
2017-11-30T14:01:37.090Z,58.13
2017-11-30T14:04:05.331Z,45.00
2017-11-30T14:06:33.632Z,50.43
2017-11-30T14:09:01.909Z,56.90
2017-11-30T14:11:30.154Z,53.47
2017-11-30T14:13:58.429Z,58.07
2017-11-30T14:16:26.646Z,64.33
2017-11-30T14:18:55.206Z,63.57
2017-11-30T14:21:23.522Z,62.33
2017-11-30T14:23:51.786Z,59.23
2017-11-30T14:26:20.209Z,56.80
2017-11-30T14:28:48.558Z,58.47
2017-11-30T14:31:16.821Z,48.57
2017-11-30T14:33:45.048Z,67.70
2017-11-30T14:36:13.326Z,56.77
2017-11-30T14:38:41.590Z,70.80
2017-11-30T14:41:09.844Z,66.80
2017-11-30T14:43:38.186Z,61.83
2017-11-30T14:46:06.441Z,61.33
2017-11-30T14:48:34.718Z,59.53
2017-11-30T14:51:02.992Z,55.80
2017-11-30T14:53:31.300Z,65.20
2017-11-30T14:55:59.558Z,63.87
2017-11-30T14:58:28.669Z,63.50
2017-11-30T15:00:56.944Z,64.17
2017-11-30T15:03:25.283Z,56.80
2017-11-30T15:05:53.591Z,70.07
2017-11-30T15:08:21.820Z,61.00
2017-11-30T15:10:50.106Z,59.53
2017-11-30T15:13:18.438Z,58.60
2017-11-30T15:15:46.685Z,63.87
2017-11-30T15:18:14.920Z,52.67
2017-11-30T15:20:43.226Z,56.20
2017-11-30T15:23:11.478Z,46.60
2017-11-30T15:25:39.749Z,53.97
2017-11-30T15:28:08.048Z,50.27
2017-11-30T15:30:36.326Z,48.97
2017-11-30T15:33:04.604Z,55.03
2017-11-30T15:35:32.886Z,52.33
2017-11-30T15:38:01.159Z,49.77
2017-11-30T15:40:29.428Z,53.10
2017-11-30T15:42:57.712Z,48.43
2017-11-30T15:45:26.635Z,47.10
2017-11-30T15:47:54.890Z,49.90
2017-11-30T15:50:23.170Z,48.17
2017-11-30T15:52:51.409Z,43.17
2017-11-30T15:55:19.696Z,47.33
2017-11-30T15:57:47.974Z,46.67
2017-11-30T16:00:16.193Z,49.67
2017-11-30T16:02:44.435Z,48.57
2017-11-30T16:05:12.714Z,64.50
2017-11-30T16:07:40.963Z,67.90
2017-11-30T16:10:09.231Z,102.47
2017-11-30T16:12:37.493Z,56.10
2017-11-30T16:15:06.491Z,44.87
2017-11-30T16:17:34.774Z,47.27
2017-11-30T16:20:03.089Z,45.03
2017-11-30T16:22:31.346Z,46.27
2017-11-30T16:24:59.618Z,48.17
2017-11-30T16:27:27.899Z,47.80
2017-11-30T16:29:56.176Z,43.40
2017-11-30T16:32:24.475Z,44.60
2017-11-30T16:34:52.923Z,52.00
2017-11-30T16:37:21.179Z,90.37
2017-11-30T16:39:49.437Z,100.60
2017-11-30T16:42:18.501Z,47.57
2017-11-30T16:44:46.773Z,52.70
2017-11-30T16:47:15.014Z,46.60
2017-11-30T16:49:43.474Z,42.03
2017-11-30T16:52:11.789Z,47.87
2017-11-30T16:54:40.065Z,49.43
2017-11-30T16:57:08.413Z,48.70
2017-11-30T16:59:36.755Z,52.90
2017-11-30T17:02:05.140Z,54.20
2017-11-30T17:04:33.411Z,53.80
2017-11-30T17:07:01.904Z,62.93
2017-11-30T17:09:30.346Z,78.20
2017-11-30T17:11:58.605Z,99.03
2017-11-30T17:14:26.982Z,84.53
2017-11-30T17:16:56.057Z,72.17
2017-11-30T17:19:24.365Z,92.63
2017-11-30T17:21:52.884Z,160.83
2017-11-30T17:24:21.253Z,130.87
2017-11-30T17:26:50.390Z,85.73
2017-11-30T17:29:18.726Z,89.67
2017-11-30T17:31:46.987Z,88.00
2017-11-30T17:34:15.230Z,96.10
2017-11-30T17:36:43.546Z,79.47
2017-11-30T17:39:11.801Z,90.07
2017-11-30T17:41:40.079Z,86.80
2017-11-30T17:44:08.431Z,87.30
2017-11-30T17:46:36.709Z,89.87
2017-11-30T17:49:04.996Z,81.20
2017-11-30T17:51:33.622Z,68.93
2017-11-30T17:54:02.702Z,73.17
2017-11-30T17:56:30.956Z,66.73
2017-11-30T17:58:59.299Z,68.83
2017-11-30T18:01:27.581Z,67.60
2017-11-30T18:03:55.844Z,71.80
2017-11-30T18:06:25.753Z,78.93
2017-11-30T18:08:54.779Z,82.60
2017-11-30T18:11:23.888Z,69.73
2017-11-30T18:13:52.215Z,69.80
2017-11-30T18:16:21.237Z,64.93
2017-11-30T18:18:49.512Z,65.40
2017-11-30T18:21:18.053Z,67.83
2017-11-30T18:23:46.314Z,66.57
2017-11-30T18:26:14.590Z,62.37
2017-11-30T18:28:42.947Z,67.70
2017-11-30T18:31:11.202Z,64.37
2017-11-30T18:33:39.471Z,65.57
2017-11-30T18:36:07.903Z,73.63
2017-11-30T18:38:36.142Z,72.13
2017-11-30T18:41:04.396Z,78.13
2017-11-30T18:43:32.751Z,65.73
2017-11-30T18:46:01.771Z,65.93
2017-11-30T18:48:30.053Z,69.90
2017-11-30T18:50:58.509Z,58.77
2017-11-30T18:53:26.798Z,64.17
2017-11-30T18:55:55.333Z,76.43
2017-11-30T18:58:24.299Z,77.13
2017-11-30T19:00:52.573Z,68.17
2017-11-30T19:03:21.925Z,69.10
2017-11-30T19:05:50.514Z,63.83
2017-11-30T19:08:19.759Z,68.83
2017-11-30T19:10:48.026Z,67.33
2017-11-30T19:13:16.309Z,62.00
2017-11-30T19:15:44.696Z,65.07
2017-11-30T19:18:12.952Z,65.80
2017-11-30T19:20:41.218Z,70.13
2017-11-30T19:23:09.839Z,71.20
2017-11-30T19:25:38.205Z,65.10
2017-11-30T19:28:06.508Z,63.93
2017-11-30T19:30:34.931Z,64.63
2017-11-30T19:33:03.275Z,66.07
2017-11-30T19:35:31.897Z,62.90
2017-11-30T19:38:00.237Z,62.63
2017-11-30T19:40:29.279Z,70.93
2017-11-30T19:42:57.592Z,64.80
2017-11-30T19:45:27.106Z,67.10
2017-11-30T19:47:55.440Z,64.00
2017-11-30T19:50:24.468Z,66.80
2017-11-30T19:52:54.510Z,65.73
2017-11-30T19:55:24.258Z,63.03
2017-11-30T19:57:52.508Z,64.43
2017-11-30T20:00:21.709Z,66.73
2017-11-30T20:02:49.997Z,65.57
2017-11-30T20:05:18.297Z,67.60
2017-11-30T20:07:46.656Z,62.70
2017-11-30T20:10:14.965Z,56.33
2017-11-30T20:12:43.690Z,56.37
2017-11-30T20:15:12.070Z,60.70
2017-11-30T20:17:40.425Z,58.83
2017-11-30T20:20:08.764Z,61.10
2017-11-30T20:22:37.135Z,56.10
2017-11-30T20:25:05.750Z,55.17
2017-11-30T20:27:34.082Z,54.77
2017-11-30T20:30:04.557Z,56.20
2017-11-30T20:32:32.839Z,53.20
2017-11-30T20:35:02.638Z,52.80
2017-11-30T20:37:30.891Z,52.30
2017-11-30T20:40:01.565Z,48.70
2017-11-30T20:42:30.683Z,51.70
2017-11-30T20:44:59.004Z,72.53
2017-11-30T20:47:27.538Z,105.13
2017-11-30T20:49:56.086Z,68.13
2017-11-30T20:52:25.404Z,81.23
2017-11-30T20:54:54.442Z,54.33
2017-11-30T20:57:22.781Z,49.40
2017-11-30T20:59:51.821Z,55.40
2017-11-30T21:02:21.164Z,51.17
2017-11-30T21:04:50.290Z,48.80
2017-11-30T21:07:18.663Z,46.23
2017-11-30T21:09:46.952Z,43.73
2017-11-30T21:12:15.241Z,45.57
2017-11-30T21:14:43.534Z,44.43
2017-11-30T21:17:11.888Z,45.37
2017-11-30T21:19:40.929Z,51.17
2017-11-30T21:22:09.213Z,44.73
2017-11-30T21:24:37.483Z,44.17
2017-11-30T21:27:05.796Z,38.17
2017-11-30T21:29:34.812Z,42.10
2017-11-30T21:32:03.054Z,90.53
2017-11-30T21:34:32.143Z,63.40
2017-11-30T21:37:00.474Z,42.50
2017-11-30T21:39:28.732Z,90.80
2017-11-30T21:41:57.059Z,49.27
2017-11-30T21:44:26.083Z,49.10
2017-11-30T21:46:54.331Z,42.63
2017-11-30T21:49:22.651Z,44.83
2017-11-30T21:51:50.912Z,47.07
2017-11-30T21:54:19.206Z,41.67
2017-11-30T21:56:47.506Z,44.40
2017-11-30T21:59:15.754Z,48.53
2017-11-30T22:01:43.976Z,44.50
2017-11-30T22:04:12.282Z,43.63
2017-11-30T22:06:41.272Z,47.50
2017-11-30T22:09:10.289Z,42.80
2017-11-30T22:11:38.633Z,42.43
2017-11-30T22:14:07.654Z,38.47
2017-11-30T22:16:35.885Z,63.97
2017-11-30T22:19:04.214Z,46.00
2017-11-30T22:21:32.549Z,48.63
2017-11-30T22:24:00.809Z,57.23
2017-11-30T22:26:29.144Z,57.07
2017-11-30T22:28:58.252Z,93.80
2017-11-30T22:31:26.493Z,83.40
2017-11-30T22:33:54.867Z,102.37
2017-11-30T22:36:23.102Z,45.20
2017-11-30T22:38:51.358Z,83.50
2017-11-30T22:41:19.702Z,63.93
2017-11-30T22:43:47.959Z,48.87
2017-11-30T22:46:16.964Z,43.77
2017-11-30T22:48:46.005Z,41.93
2017-11-30T22:51:14.306Z,40.20
2017-11-30T22:53:45.061Z,39.57
2017-11-30T22:56:13.364Z,37.37
2017-11-30T22:58:41.617Z,37.03
2017-11-30T23:01:09.938Z,36.07
2017-11-30T23:03:38.174Z,35.40
2017-11-30T23:06:06.416Z,36.13
2017-11-30T23:08:34.683Z,33.70
2017-11-30T23:11:02.969Z,34.33
2017-11-30T23:13:31.526Z,35.00
2017-11-30T23:15:59.889Z,33.37
2017-11-30T23:18:28.207Z,34.07
2017-11-30T23:20:57.230Z,33.90
2017-11-30T23:23:25.514Z,36.17
2017-11-30T23:25:55.137Z,33.60
2017-11-30T23:28:23.390Z,31.67
2017-11-30T23:30:51.701Z,33.30
2017-11-30T23:33:20.013Z,29.37
2017-11-30T23:35:48.261Z,29.47
2017-11-30T23:38:16.510Z,28.47
2017-11-30T23:40:44.906Z,28.53
2017-11-30T23:43:13.192Z,32.17
2017-11-30T23:45:41.417Z,29.07
2017-11-30T23:48:09.770Z,28.63
2017-11-30T23:50:38.044Z,28.17
2017-11-30T23:53:06.289Z,29.97
2017-11-30T23:55:35.361Z,25.30
2017-11-30T23:58:03.581Z,26.37
